Time;durP1;ratioP1;P1;durP2;ratioP2;P2;SDS_P1;SDS_P2;PMS_P1;PMS_P2;Temp;Humidity;BMP_temperature;BMP_pressure;BME280_temperature;BME280_humidity;BME280_pressure;Samples;Min_cycle;Max_cycle;Signal;HPM_P1;HPM_P2
2023/12/04 00:02:14;;;;;;;11.97;7.50;;;4.00;99.90;;;;;;5075198;28;20212;-73
2023/12/04 00:04:40;;;;;;;9.60;6.80;;;3.90;99.90;;;;;;5074532;28;20168;-74
2023/12/04 00:07:05;;;;;;;11.30;7.17;;;3.90;99.90;;;;;;5075779;28;20252;-74
2023/12/04 00:09:31;;;;;;;10.70;7.20;;;3.90;99.90;;;;;;5075693;28;20655;-74
2023/12/04 00:11:57;;;;;;;8.67;6.43;;;3.90;99.90;;;;;;5074172;28;20184;-75
2023/12/04 00:14:22;;;;;;;9.27;6.83;;;3.90;99.90;;;;;;5075542;28;20192;-74
2023/12/04 00:16:48;;;;;;;9.33;6.70;;;3.90;99.90;;;;;;5075063;28;20234;-75
2023/12/04 00:19:13;;;;;;;10.30;7.40;;;3.90;99.90;;;;;;5075505;28;20173;-74
2023/12/04 00:21:39;;;;;;;11.20;7.27;;;4.00;99.90;;;;;;5075455;28;20258;-74
2023/12/04 00:24:05;;;;;;;10.23;7.13;;;4.00;99.90;;;;;;5075556;28;20169;-75
2023/12/04 00:26:31;;;;;;;9.57;6.47;;;3.90;99.90;;;;;;5075150;28;20662;-74
2023/12/04 00:28:56;;;;;;;10.37;6.80;;;4.00;99.90;;;;;;5075458;28;20339;-74
2023/12/04 00:31:22;;;;;;;11.23;6.83;;;4.00;99.90;;;;;;5074958;28;20572;-74
2023/12/04 00:33:48;;;;;;;9.80;6.47;;;4.00;99.90;;;;;;5075118;28;20211;-73
2023/12/04 00:36:13;;;;;;;10.30;6.90;;;4.00;99.90;;;;;;5075355;28;20173;-74
2023/12/04 00:38:39;;;;;;;9.77;6.97;;;4.00;99.90;;;;;;5075218;28;20169;-74
2023/12/04 00:41:05;;;;;;;7.87;5.87;;;3.90;99.90;;;;;;5074900;28;20680;-74
2023/12/04 00:43:31;;;;;;;10.37;6.90;;;4.00;99.90;;;;;;5075320;28;20639;-74
2023/12/04 00:45:56;;;;;;;10.20;6.40;;;4.10;99.90;;;;;;5074756;28;20173;-73
2023/12/04 00:48:22;;;;;;;11.20;7.07;;;4.00;99.90;;;;;;5075208;28;20692;-73
2023/12/04 00:50:48;;;;;;;10.60;6.53;;;4.10;99.90;;;;;;5075038;28;20161;-74
2023/12/04 00:53:13;;;;;;;9.57;6.10;;;4.10;99.90;;;;;;5074800;28;20183;-74
2023/12/04 00:55:39;;;;;;;8.97;6.20;;;4.10;99.90;;;;;;5074879;28;20167;-74
2023/12/04 00:58:05;;;;;;;9.47;6.23;;;4.10;99.90;;;;;;5074803;28;20176;-74
2023/12/04 01:00:31;;;;;;;9.00;6.70;;;4.00;99.90;;;;;;5073018;28;20203;-74
2023/12/04 01:02:56;;;;;;;9.10;6.27;;;4.00;99.90;;;;;;5073480;28;20169;-74
2023/12/04 01:05:22;;;;;;;9.23;6.57;;;4.10;99.90;;;;;;5074666;28;20628;-75
2023/12/04 01:07:47;;;;;;;10.53;6.40;;;4.10;99.90;;;;;;5074701;28;20165;-73
2023/12/04 01:10:13;;;;;;;9.20;6.50;;;4.10;99.90;;;;;;5074307;28;20637;-74
2023/12/04 01:12:38;;;;;;;8.53;6.20;;;4.10;99.90;;;;;;5074324;28;20196;-74
2023/12/04 01:15:04;;;;;;;7.40;5.43;;;4.10;99.90;;;;;;5074243;28;20590;-75
2023/12/04 01:17:30;;;;;;;8.73;5.50;;;4.10;99.90;;;;;;5074823;28;20271;-74
2023/12/04 01:19:57;;;;;;;7.27;5.53;;;4.10;99.90;;;;;;5074354;28;20182;-74
2023/12/04 01:22:22;;;;;;;8.57;5.80;;;4.20;99.90;;;;;;5074266;28;20240;-74
2023/12/04 01:24:48;;;;;;;7.33;5.47;;;4.20;99.90;;;;;;5073025;28;20223;-74
2023/12/04 01:27:14;;;;;;;9.00;5.87;;;4.20;99.90;;;;;;5073863;28;20687;-74
2023/12/04 01:29:39;;;;;;;7.57;5.83;;;4.30;99.90;;;;;;5073615;28;20168;-75
2023/12/04 01:32:05;;;;;;;6.80;5.47;;;4.20;99.90;;;;;;5073941;28;20697;-73
2023/12/04 01:34:31;;;;;;;9.97;5.87;;;4.20;99.90;;;;;;5074278;28;20244;-74
2023/12/04 01:36:56;;;;;;;8.50;5.93;;;4.20;99.90;;;;;;5073902;28;20527;-73
2023/12/04 01:39:22;;;;;;;8.33;5.97;;;4.20;99.90;;;;;;5073903;28;20169;-73
2023/12/04 01:41:48;;;;;;;6.93;5.53;;;4.20;99.90;;;;;;5073500;28;20672;-74
2023/12/04 01:44:13;;;;;;;7.63;5.33;;;4.20;99.90;;;;;;5073194;28;20207;-74
2023/12/04 01:46:39;;;;;;;6.90;5.10;;;4.20;99.90;;;;;;5073752;28;20199;-74
2023/12/04 01:49:05;;;;;;;7.13;5.60;;;4.20;99.90;;;;;;5073895;28;20204;-74
2023/12/04 01:51:31;;;;;;;7.33;5.43;;;4.20;99.90;;;;;;5072573;28;20168;-74
2023/12/04 01:54:00;;;;;;;7.23;5.60;;;4.20;99.90;;;;;;5073602;28;20624;-74
2023/12/04 01:56:26;;;;;;;8.20;5.57;;;4.20;99.90;;;;;;5073844;28;20157;-74
2023/12/04 01:58:52;;;;;;;6.13;5.10;;;4.30;99.40;;;;;;5073338;28;20187;-73
2023/12/04 02:01:19;;;;;;;6.83;5.07;;;4.30;99.70;;;;;;5073508;28;20208;-72
2023/12/04 02:03:45;;;;;;;6.47;5.07;;;4.30;99.50;;;;;;5073579;28;20640;-74
2023/12/04 02:06:12;;;;;;;7.87;5.10;;;4.30;99.40;;;;;;5072462;28;20195;-73
2023/12/04 02:08:38;;;;;;;6.27;4.97;;;4.40;99.80;;;;;;5073641;28;20183;-74
2023/12/04 02:11:05;;;;;;;6.73;5.13;;;4.40;99.50;;;;;;5073416;28;20169;-74
2023/12/04 02:13:30;;;;;;;6.60;4.90;;;4.40;99.00;;;;;;5072930;28;20168;-74
2023/12/04 02:16:00;;;;;;;7.60;5.20;;;4.40;99.30;;;;;;5073478;28;20232;-74
2023/12/04 02:18:26;;;;;;;6.80;5.00;;;4.50;99.00;;;;;;5073365;28;20654;-74
2023/12/04 02:20:53;;;;;;;5.40;4.47;;;4.50;98.60;;;;;;5073262;28;20270;-74
2023/12/04 02:23:18;;;;;;;8.03;5.13;;;4.50;98.40;;;;;;5072761;28;20698;-74
2023/12/04 02:25:44;;;;;;;8.70;5.50;;;4.50;98.80;;;;;;5072973;28;20192;-73
2023/12/04 02:28:14;;;;;;;6.43;4.97;;;4.40;98.70;;;;;;5072838;28;20271;-74
2023/12/04 02:30:43;;;;;;;7.13;5.20;;;4.40;98.70;;;;;;5073383;28;20172;-74
2023/12/04 02:33:11;;;;;;;5.60;4.20;;;4.40;98.70;;;;;;5073154;28;20287;-73
2023/12/04 02:35:39;;;;;;;5.90;4.20;;;4.40;98.00;;;;;;5072320;28;20294;-74
2023/12/04 02:38:06;;;;;;;6.47;4.40;;;4.50;98.90;;;;;;5073127;28;20325;-73
2023/12/04 02:40:32;;;;;;;5.33;4.23;;;4.30;98.80;;;;;;5073323;28;20556;-74
2023/12/04 02:42:57;;;;;;;7.73;5.20;;;4.30;98.80;;;;;;5072828;28;20176;-74
2023/12/04 02:45:23;;;;;;;6.27;4.90;;;4.30;99.20;;;;;;5073178;28;20172;-73
2023/12/04 02:47:49;;;;;;;7.13;4.93;;;4.20;99.50;;;;;;5071793;28;20612;-74
2023/12/04 02:50:14;;;;;;;6.33;4.93;;;4.20;99.40;;;;;;5073137;28;20165;-74
2023/12/04 02:52:40;;;;;;;7.07;4.33;;;4.10;99.30;;;;;;5073086;28;20173;-75
2023/12/04 02:55:06;;;;;;;5.53;4.67;;;4.10;99.10;;;;;;5073286;28;20204;-74
2023/12/04 02:57:31;;;;;;;8.07;4.30;;;4.10;99.80;;;;;;5072672;28;20636;-74
2023/12/04 02:59:57;;;;;;;5.80;4.20;;;4.10;99.30;;;;;;5072972;28;20207;-75
2023/12/04 03:02:23;;;;;;;6.90;5.23;;;4.10;99.20;;;;;;5072903;28;20273;-75
2023/12/04 03:04:48;;;;;;;7.07;4.60;;;4.10;99.60;;;;;;5073055;28;20628;-74
2023/12/04 03:07:14;;;;;;;7.00;4.50;;;4.20;99.40;;;;;;5072931;28;20176;-74
2023/12/04 03:09:39;;;;;;;6.47;4.63;;;4.20;99.50;;;;;;5072772;28;20176;-75
2023/12/04 03:12:05;;;;;;;5.90;4.30;;;4.10;99.30;;;;;;5072463;28;20226;-74
2023/12/04 03:14:31;;;;;;;6.00;4.83;;;4.20;99.40;;;;;;5073023;28;20183;-75
2023/12/04 03:16:56;;;;;;;6.43;4.70;;;4.20;99.40;;;;;;5072930;28;20245;-75
2023/12/04 03:19:22;;;;;;;6.37;4.93;;;4.20;99.60;;;;;;5072839;28;20176;-74
2023/12/04 03:21:48;;;;;;;6.03;4.87;;;4.20;99.40;;;;;;5072709;28;20748;-74
2023/12/04 03:24:13;;;;;;;6.20;4.73;;;4.30;99.30;;;;;;5072667;28;20570;-74
2023/12/04 03:26:40;;;;;;;4.70;4.20;;;4.30;99.10;;;;;;5072367;28;20703;-74
2023/12/04 03:29:05;;;;;;;5.37;4.20;;;4.30;98.80;;;;;;5072782;28;20211;-74
2023/12/04 03:31:31;;;;;;;5.83;4.50;;;4.30;99.10;;;;;;5072668;28;20243;-75
2023/12/04 03:33:57;;;;;;;6.87;4.53;;;4.30;99.20;;;;;;5074921;28;20165;-75
2023/12/04 03:36:22;;;;;;;6.90;4.87;;;4.30;99.20;;;;;;5076526;28;20173;-74
2023/12/04 03:38:48;;;;;;;4.80;3.93;;;4.20;99.10;;;;;;5076345;28;20165;-73
2023/12/04 03:41:15;;;;;;;5.20;4.07;;;4.20;99.50;;;;;;5074263;28;20200;-75
2023/12/04 03:43:41;;;;;;;5.13;4.33;;;4.30;99.90;;;;;;5076232;28;20164;-75
2023/12/04 03:46:06;;;;;;;6.43;4.47;;;4.30;99.60;;;;;;5076399;28;20651;-75
2023/12/04 03:48:32;;;;;;;6.43;4.80;;;4.30;99.60;;;;;;5075065;28;20168;-75
2023/12/04 03:50:57;;;;;;;5.47;4.63;;;4.20;99.80;;;;;;5076015;28;20171;-75
2023/12/04 03:53:23;;;;;;;5.77;4.43;;;4.20;99.50;;;;;;5075689;28;20172;-75
2023/12/04 03:55:49;;;;;;;6.23;4.77;;;4.30;99.30;;;;;;5076107;28;20554;-76
2023/12/04 03:58:14;;;;;;;5.00;4.33;;;4.30;99.90;;;;;;5074783;28;20226;-74
2023/12/04 04:00:43;;;;;;;7.33;4.90;;;4.30;99.50;;;;;;5075956;28;20287;-73
2023/12/04 04:03:11;;;;;;;5.23;4.40;;;4.30;99.40;;;;;;5075868;28;20248;-75
2023/12/04 04:05:37;;;;;;;7.37;4.90;;;4.20;99.60;;;;;;5075817;28;20183;-74
2023/12/04 04:08:03;;;;;;;5.73;4.23;;;4.20;99.50;;;;;;5075472;28;20160;-74
2023/12/04 04:10:28;;;;;;;5.70;4.73;;;4.20;99.10;;;;;;5075677;28;20169;-75
2023/12/04 04:12:54;;;;;;;6.23;3.97;;;4.20;99.50;;;;;;5074466;28;20256;-74
2023/12/04 04:15:20;;;;;;;5.83;4.53;;;4.10;99.20;;;;;;5074304;28;20200;-73
2023/12/04 04:17:45;;;;;;;7.13;4.63;;;4.20;99.40;;;;;;5074046;28;20160;-75
2023/12/04 04:20:12;;;;;;;7.80;4.50;;;4.10;99.20;;;;;;5075308;28;20168;-76
2023/12/04 04:22:39;;;;;;;6.53;4.30;;;4.20;99.10;;;;;;5074733;28;20633;-74
2023/12/04 04:25:06;;;;;;;5.70;4.70;;;4.20;98.40;;;;;;5075437;28;20188;-74
2023/12/04 04:27:32;;;;;;;6.17;4.53;;;4.30;98.20;;;;;;5073946;28;20228;-74
2023/12/04 04:29:58;;;;;;;7.10;4.50;;;4.30;98.10;;;;;;5075393;28;20539;-73
2023/12/04 04:32:23;;;;;;;6.60;4.87;;;4.40;98.10;;;;;;5075187;28;20248;-75
2023/12/04 04:34:49;;;;;;;6.03;5.00;;;4.40;98.30;;;;;;5074749;28;20632;-74
2023/12/04 04:37:15;;;;;;;5.80;5.03;;;4.40;98.20;;;;;;5073007;28;20169;-75
2023/12/04 04:39:41;;;;;;;5.60;4.13;;;4.40;98.50;;;;;;5075044;28;20539;-75
2023/12/04 04:42:06;;;;;;;5.63;4.60;;;4.40;97.70;;;;;;5074456;28;20211;-75
2023/12/04 04:44:32;;;;;;;7.50;4.47;;;4.50;99.00;;;;;;5073113;28;20177;-75
2023/12/04 04:46:57;;;;;;;7.23;4.60;;;4.50;97.20;;;;;;5074518;28;20179;-75
2023/12/04 04:49:23;;;;;;;4.97;4.47;;;4.40;97.80;;;;;;5075035;28;20578;-75
2023/12/04 04:51:49;;;;;;;6.07;4.80;;;4.40;97.60;;;;;;5074148;28;20210;-74
2023/12/04 04:54:14;;;;;;;6.17;4.80;;;4.50;97.10;;;;;;5074259;28;20165;-75
2023/12/04 04:56:40;;;;;;;6.63;4.87;;;4.50;96.50;;;;;;5074507;28;20256;-75
2023/12/04 04:59:06;;;;;;;6.20;4.83;;;4.60;96.20;;;;;;5074647;28;20173;-74
2023/12/04 05:01:31;;;;;;;4.93;4.30;;;4.60;96.60;;;;;;5074599;28;20212;-75
2023/12/04 05:03:57;;;;;;;5.97;4.40;;;4.60;95.80;;;;;;5074595;28;20222;-74
2023/12/04 05:06:23;;;;;;;5.47;4.33;;;4.70;95.30;;;;;;5073929;28;20628;-74
2023/12/04 05:08:52;;;;;;;4.37;3.93;;;4.70;95.00;;;;;;5073931;28;20173;-75
2023/12/04 05:11:17;;;;;;;6.07;4.90;;;4.70;94.50;;;;;;5073909;28;20255;-74
2023/12/04 05:13:44;;;;;;;5.90;4.10;;;4.80;94.40;;;;;;5074030;28;20255;-75
2023/12/04 05:16:10;;;;;;;6.30;4.10;;;4.70;94.00;;;;;;5074486;28;20177;-75
2023/12/04 05:18:35;;;;;;;5.47;3.73;;;4.80;95.00;;;;;;5074221;28;20225;-75
2023/12/04 05:21:01;;;;;;;4.23;3.77;;;4.80;94.00;;;;;;5073090;28;20201;-75
2023/12/04 05:23:27;;;;;;;6.03;4.07;;;4.80;94.00;;;;;;5073760;28;20176;-75
2023/12/04 05:25:52;;;;;;;4.50;4.10;;;4.90;93.50;;;;;;5073678;28;20268;-74
2023/12/04 05:28:18;;;;;;;4.73;4.13;;;4.90;93.90;;;;;;5073889;28;20197;-74
2023/12/04 05:30:43;;;;;;;5.20;4.27;;;4.80;93.70;;;;;;5073605;28;20176;-74
2023/12/04 05:33:09;;;;;;;4.03;3.63;;;4.80;93.80;;;;;;5073861;28;20199;-75
2023/12/04 05:35:36;;;;;;;4.53;3.87;;;4.70;93.80;;;;;;5072985;28;20173;-74
2023/12/04 05:38:01;;;;;;;6.23;3.43;;;4.70;93.60;;;;;;5073721;28;20259;-75
2023/12/04 05:40:27;;;;;;;4.10;3.70;;;4.70;93.40;;;;;;5073667;28;20207;-74
2023/12/04 05:42:53;;;;;;;4.30;3.80;;;4.70;93.50;;;;;;5073162;28;20184;-75
2023/12/04 05:45:18;;;;;;;3.83;3.43;;;4.80;93.80;;;;;;5073382;28;20177;-74
2023/12/04 05:47:44;;;;;;;5.07;3.77;;;4.80;93.80;;;;;;5073651;28;20169;-74
2023/12/04 05:50:09;;;;;;;5.20;3.70;;;4.80;94.50;;;;;;5071039;28;20218;-75
2023/12/04 05:52:35;;;;;;;5.87;4.10;;;4.90;93.80;;;;;;5072480;28;20259;-76
2023/12/04 05:55:01;;;;;;;4.23;3.40;;;4.80;93.50;;;;;;5073040;28;20188;-75
2023/12/04 05:57:26;;;;;;;3.97;3.57;;;4.70;93.60;;;;;;5071660;28;20259;-75
2023/12/04 05:59:52;;;;;;;4.73;3.77;;;4.70;94.20;;;;;;5072424;28;20172;-75
2023/12/04 06:02:17;;;;;;;4.20;3.57;;;4.70;93.80;;;;;;5071261;28;20212;-75
2023/12/04 06:04:43;;;;;;;4.30;3.67;;;4.70;94.00;;;;;;5072138;28;20605;-75
2023/12/04 06:07:09;;;;;;;5.73;3.77;;;4.70;94.20;;;;;;5072671;28;20219;-74
2023/12/04 06:09:36;;;;;;;5.33;3.90;;;4.70;94.30;;;;;;5072267;28;20165;-75
2023/12/04 06:12:07;;;;;;;4.20;3.80;;;4.70;94.50;;;;;;5070971;28;20176;-74
2023/12/04 06:14:33;;;;;;;4.70;3.77;;;4.60;94.70;;;;;;5070829;28;20176;-74
2023/12/04 06:16:59;;;;;;;5.37;4.17;;;4.60;94.80;;;;;;5072312;28;20176;-75
2023/12/04 06:19:25;;;;;;;5.53;3.90;;;4.60;95.10;;;;;;5071854;28;20169;-76
2023/12/04 06:21:52;;;;;;;5.43;4.13;;;4.50;94.80;;;;;;5071980;28;20214;-75
2023/12/04 06:24:18;;;;;;;6.23;4.30;;;4.50;95.20;;;;;;5072278;28;20240;-76
2023/12/04 06:26:47;;;;;;;4.03;3.57;;;4.50;95.20;;;;;;5071910;28;20716;-75
2023/12/04 06:29:12;;;;;;;5.27;3.70;;;4.50;94.80;;;;;;5072506;28;20284;-75
2023/12/04 06:31:38;;;;;;;4.87;3.87;;;4.50;94.90;;;;;;5071913;28;20468;-75
2023/12/04 06:34:04;;;;;;;5.13;4.03;;;4.50;94.80;;;;;;5070512;28;20212;-75
2023/12/04 06:36:35;;;;;;;5.87;4.43;;;4.50;94.90;;;;;;5071670;28;20196;-74
2023/12/04 06:39:01;;;;;;;5.77;4.60;;;4.50;95.20;;;;;;5072052;28;20160;-74
2023/12/04 06:41:27;;;;;;;5.77;4.50;;;4.50;95.40;;;;;;5071776;28;20216;-75
2023/12/04 06:43:53;;;;;;;7.33;4.70;;;4.60;95.20;;;;;;5071405;28;20539;-73
2023/12/04 06:46:20;;;;;;;5.03;4.50;;;4.60;95.30;;;;;;5071577;28;20191;-74
2023/12/04 06:48:48;;;;;;;5.40;4.33;;;4.70;95.50;;;;;;5053609;28;20194;-74
2023/12/04 06:51:13;;;;;;;9.13;4.63;;;4.60;95.50;;;;;;5070829;28;20674;-75
2023/12/04 06:53:39;;;;;;;5.30;4.27;;;4.70;95.50;;;;;;5070616;28;20188;-75
2023/12/04 06:56:05;;;;;;;5.53;4.57;;;4.70;96.10;;;;;;5071598;28;20226;-76
2023/12/04 06:58:31;;;;;;;4.70;4.20;;;4.70;95.50;;;;;;5071097;28;20255;-75
2023/12/04 07:00:56;;;;;;;6.77;5.10;;;4.70;95.50;;;;;;5070068;28;20196;-75
2023/12/04 07:03:22;;;;;;;6.20;4.50;;;4.60;96.30;;;;;;5068173;28;20181;-75
2023/12/04 07:05:47;;;;;;;4.80;4.00;;;4.70;96.00;;;;;;5069916;28;20172;-76
2023/12/04 07:08:13;;;;;;;5.20;4.43;;;4.70;96.10;;;;;;5072044;28;20562;-76
2023/12/04 07:10:39;;;;;;;4.87;4.40;;;4.70;96.30;;;;;;5074769;28;20234;-75
2023/12/04 07:13:05;;;;;;;4.83;3.73;;;4.60;96.60;;;;;;5075206;28;20249;-75
2023/12/04 07:15:31;;;;;;;5.93;4.80;;;4.60;96.40;;;;;;5074992;28;20611;-75
2023/12/04 07:17:56;;;;;;;4.97;4.43;;;4.60;96.80;;;;;;5074492;28;20172;-75
2023/12/04 07:20:23;;;;;;;5.23;4.73;;;4.70;96.80;;;;;;5073813;28;20247;-74
2023/12/04 07:22:49;;;;;;;5.97;4.60;;;4.70;96.90;;;;;;5074795;28;20202;-76
2023/12/04 07:25:16;;;;;;;4.77;4.30;;;4.70;97.20;;;;;;5074784;28;20577;-76
2023/12/04 07:27:41;;;;;;;5.40;4.70;;;4.70;97.20;;;;;;5074552;28;20685;-75
2023/12/04 07:30:08;;;;;;;5.03;4.10;;;4.70;97.40;;;;;;5075130;28;20248;-75
2023/12/04 07:32:35;;;;;;;5.27;4.20;;;4.60;97.40;;;;;;5074607;28;20169;-75
2023/12/04 07:35:00;;;;;;;6.00;4.97;;;4.60;97.50;;;;;;5073371;28;20632;-74
2023/12/04 07:37:26;;;;;;;6.27;5.07;;;4.50;98.20;;;;;;5074861;28;20315;-75
2023/12/04 07:39:52;;;;;;;6.30;5.37;;;4.50;98.50;;;;;;5074928;28;20176;-75
2023/12/04 07:42:17;;;;;;;4.73;4.23;;;4.50;98.70;;;;;;5074066;28;20349;-75
2023/12/04 07:44:43;;;;;;;7.57;4.70;;;4.50;98.50;;;;;;5074703;28;20168;-75
2023/12/04 07:47:08;;;;;;;7.57;5.20;;;4.50;98.60;;;;;;5074543;28;20183;-74
2023/12/04 07:49:34;;;;;;;5.37;4.50;;;4.50;99.20;;;;;;5074576;28;20256;-75
2023/12/04 07:51:59;;;;;;;4.87;4.27;;;4.50;99.40;;;;;;5074157;28;20175;-75
2023/12/04 07:54:26;;;;;;;8.03;5.27;;;4.50;99.50;;;;;;5074588;28;20230;-74
2023/12/04 07:56:53;;;;;;;6.43;5.30;;;4.40;99.80;;;;;;5073072;28;20654;-75
2023/12/04 07:59:18;;;;;;;5.73;4.00;;;4.40;99.90;;;;;;5074577;28;20165;-75
2023/12/04 08:01:45;;;;;;;7.93;4.87;;;4.40;99.90;;;;;;5074117;28;20672;-75
2023/12/04 08:04:11;;;;;;;6.03;5.20;;;4.40;99.90;;;;;;5073520;28;20165;-75
2023/12/04 08:06:36;;;;;;;6.67;5.30;;;4.40;99.90;;;;;;5073761;28;20511;-75
2023/12/04 08:09:02;;;;;;;6.17;4.83;;;4.40;99.90;;;;;;5073450;28;20627;-75
2023/12/04 08:11:28;;;;;;;5.40;4.10;;;4.40;99.90;;;;;;5074132;28;20596;-74
2023/12/04 08:13:53;;;;;;;5.73;4.63;;;4.40;99.90;;;;;;5074340;28;20164;-73
2023/12/04 08:16:20;;;;;;;7.23;5.07;;;4.40;99.90;;;;;;5073238;28;20180;-74
2023/12/04 08:18:45;;;;;;;5.33;4.83;;;4.40;99.90;;;;;;5074579;28;20171;-75
2023/12/04 08:21:11;;;;;;;5.93;4.50;;;4.30;99.90;;;;;;5073486;28;20535;-74
2023/12/04 08:23:37;;;;;;;7.57;6.17;;;4.40;99.90;;;;;;5073318;28;20256;-74
2023/12/04 08:26:03;;;;;;;6.83;5.20;;;4.30;99.90;;;;;;5074125;28;20606;-74
2023/12/04 08:28:29;;;;;;;5.87;4.83;;;4.30;99.90;;;;;;5074510;28;20628;-74
2023/12/04 08:30:55;;;;;;;6.73;4.50;;;4.30;99.90;;;;;;5072136;28;20195;-73
2023/12/04 08:33:20;;;;;;;7.70;5.73;;;4.40;99.90;;;;;;5074785;28;20164;-75
2023/12/04 08:35:47;;;;;;;6.23;5.43;;;4.30;99.90;;;;;;5074275;28;20172;-73
2023/12/04 08:38:12;;;;;;;5.70;5.07;;;4.40;99.90;;;;;;5074625;28;20173;-74
2023/12/04 08:40:38;;;;;;;7.93;5.60;;;4.40;99.90;;;;;;5073056;28;20172;-74
2023/12/04 08:43:04;;;;;;;8.80;6.07;;;4.30;99.90;;;;;;5073599;28;20523;-74
2023/12/04 08:45:30;;;;;;;6.37;5.53;;;4.30;99.90;;;;;;5073420;28;20489;-74
2023/12/04 08:47:55;;;;;;;6.67;5.07;;;4.20;99.90;;;;;;5074568;28;20188;-74
2023/12/04 08:50:21;;;;;;;7.27;5.47;;;4.20;99.90;;;;;;5073837;28;20175;-75
2023/12/04 08:52:46;;;;;;;6.63;4.77;;;4.20;99.90;;;;;;5074243;28;20169;-74
2023/12/04 08:55:12;;;;;;;7.47;4.73;;;4.20;99.90;;;;;;5072575;28;20173;-74
2023/12/04 08:57:38;;;;;;;7.70;5.57;;;4.20;99.90;;;;;;5074227;28;20196;-74
2023/12/04 09:00:04;;;;;;;7.63;6.20;;;4.20;99.90;;;;;;5073486;28;20634;-74
2023/12/04 09:02:31;;;;;;;7.60;6.37;;;4.20;99.90;;;;;;5074016;28;20208;-74
2023/12/04 09:04:56;;;;;;;7.67;5.50;;;4.20;99.90;;;;;;5073623;28;20188;-74
2023/12/04 09:07:22;;;;;;;7.17;6.10;;;4.10;99.90;;;;;;5074356;28;20215;-74
2023/12/04 09:09:48;;;;;;;9.40;5.90;;;4.10;99.90;;;;;;5074100;28;20245;-74
2023/12/04 09:12:14;;;;;;;6.50;5.30;;;4.10;99.90;;;;;;5071826;28;20177;-73
2023/12/04 09:14:40;;;;;;;8.53;6.30;;;4.10;99.90;;;;;;5073317;28;20230;-73
2023/12/04 09:17:05;;;;;;;6.83;5.93;;;4.10;99.90;;;;;;5073747;28;20173;-75
2023/12/04 09:19:31;;;;;;;9.53;5.60;;;4.10;99.90;;;;;;5073457;28;20566;-74
2023/12/04 09:21:57;;;;;;;6.20;5.37;;;4.20;99.90;;;;;;5073621;28;20275;-75
2023/12/04 09:24:23;;;;;;;7.83;5.80;;;4.20;99.90;;;;;;5073209;28;20215;-74
2023/12/04 09:26:49;;;;;;;8.00;5.50;;;4.20;99.90;;;;;;5072011;28;20224;-75
2023/12/04 09:29:16;;;;;;;7.43;4.97;;;4.10;99.90;;;;;;5073308;28;20476;-73
2023/12/04 09:31:42;;;;;;;7.10;5.33;;;4.20;99.90;;;;;;5071948;28;20287;-74
2023/12/04 09:34:08;;;;;;;8.43;6.07;;;4.20;99.90;;;;;;5073126;28;20659;-74
2023/12/04 09:36:34;;;;;;;7.50;5.80;;;4.20;99.90;;;;;;5073779;28;20616;-73
2023/12/04 09:39:00;;;;;;;7.77;6.40;;;4.10;99.90;;;;;;5073292;28;20169;-74
2023/12/04 09:41:26;;;;;;;7.20;5.00;;;4.00;99.90;;;;;;5071075;28;20212;-73
2023/12/04 09:43:52;;;;;;;9.63;4.83;;;3.90;99.90;;;;;;5072951;28;20731;-72
2023/12/04 09:46:19;;;;;;;9.13;6.40;;;3.80;99.90;;;;;;5073474;28;20203;-73
2023/12/04 09:48:44;;;;;;;7.13;5.83;;;3.80;99.90;;;;;;5073367;28;20184;-72
2023/12/04 09:51:10;;;;;;;10.23;6.60;;;3.70;99.90;;;;;;5072279;28;20165;-71
2023/12/04 09:53:36;;;;;;;9.07;6.73;;;3.70;99.90;;;;;;5072796;28;20180;-72
2023/12/04 09:56:07;;;;;;;9.47;7.17;;;3.60;99.90;;;;;;5071873;28;20187;-72
2023/12/04 09:58:35;;;;;;;8.70;6.37;;;3.60;99.90;;;;;;5073269;28;20183;-74
2023/12/04 10:01:01;;;;;;;8.63;6.13;;;3.50;99.90;;;;;;5072604;28;20197;-73
2023/12/04 10:03:29;;;;;;;8.17;6.63;;;3.30;99.90;;;;;;5072804;28;20237;-74
2023/12/04 10:05:55;;;;;;;7.83;5.90;;;3.30;99.90;;;;;;5073123;28;20640;-72
2023/12/04 10:08:21;;;;;;;8.23;6.27;;;3.20;99.90;;;;;;5072912;28;20318;-73
2023/12/04 10:10:47;;;;;;;8.90;6.73;;;3.20;99.90;;;;;;5071890;28;20164;-73
2023/12/04 10:13:13;;;;;;;8.20;6.60;;;3.20;99.90;;;;;;5072135;28;20521;-72
2023/12/04 10:15:47;;;;;;;7.73;6.30;;;3.20;99.90;;;;;;5072359;28;20183;-73
2023/12/04 10:18:30;;;;;;;9.70;6.70;;;3.10;99.90;;;;;;5073148;28;20646;-74
2023/12/04 10:20:56;;;;;;;8.70;5.87;;;3.10;99.90;;;;;;5072259;28;20192;-73
2023/12/04 10:23:22;;;;;;;8.77;6.40;;;3.10;99.90;;;;;;5072926;28;20236;-73
2023/12/04 10:25:51;;;;;;;10.30;6.80;;;3.10;99.90;;;;;;5072055;28;20172;-73
2023/12/04 10:28:17;;;;;;;10.27;6.63;;;3.10;99.90;;;;;;5072660;28;20211;-73
2023/12/04 10:30:44;;;;;;;8.27;6.27;;;3.10;99.90;;;;;;5072063;28;20188;-73
2023/12/04 10:33:10;;;;;;;9.10;6.30;;;3.10;99.90;;;;;;5072779;28;20234;-73
2023/12/04 10:35:36;;;;;;;10.77;7.47;;;3.10;99.90;;;;;;5070910;28;20605;-73
2023/12/04 10:38:03;;;;;;;8.73;6.47;;;3.10;99.90;;;;;;5071204;28;20200;-74
2023/12/04 10:40:31;;;;;;;10.07;7.20;;;3.20;99.90;;;;;;5070650;28;20179;-72
2023/12/04 10:43:09;;;;;;;11.40;7.40;;;3.20;99.90;;;;;;5071008;28;20212;-72
2023/12/04 10:45:39;;;;;;;10.17;6.57;;;3.30;99.90;;;;;;5072510;28;20221;-74
2023/12/04 10:48:05;;;;;;;10.80;6.63;;;3.30;99.90;;;;;;5071967;28;20165;-73
2023/12/04 10:50:45;;;;;;;9.83;5.40;;;3.30;99.90;;;;;;5071720;28;20230;-73
2023/12/04 10:53:12;;;;;;;12.57;7.50;;;3.30;99.90;;;;;;5071878;28;20176;-74
2023/12/04 10:55:40;;;;;;;11.23;8.97;;;3.40;99.90;;;;;;5071557;28;20172;-72
2023/12/04 10:58:10;;;;;;;12.50;8.23;;;3.50;99.90;;;;;;5071944;28;20168;-73
2023/12/04 11:00:48;;;;;;;8.37;6.40;;;3.50;99.90;;;;;;5071895;28;20168;-73
2023/12/04 11:03:19;;;;;;;8.43;6.27;;;3.70;99.90;;;;;;5070286;28;20485;-73
2023/12/04 11:05:49;;;;;;;10.70;7.17;;;3.80;99.90;;;;;;5072290;28;20282;-73
2023/12/04 11:08:17;;;;;;;7.47;6.33;;;3.90;99.90;;;;;;5070079;28;20608;-74
2023/12/04 11:11:07;;;;;;;10.77;7.00;;;4.00;99.90;;;;;;5071085;28;20164;-73
2023/12/04 11:13:37;;;;;;;9.53;6.33;;;4.10;99.90;;;;;;5071706;28;20165;-73
2023/12/04 11:16:12;;;;;;;7.63;6.43;;;4.10;99.90;;;;;;5071978;28;20173;-73
2023/12/04 11:18:41;;;;;;;10.73;7.00;;;4.20;99.90;;;;;;5070682;28;20176;-73
2023/12/04 11:21:11;;;;;;;8.33;6.83;;;4.20;99.90;;;;;;5070076;28;20204;-72
2023/12/04 11:23:37;;;;;;;11.47;7.07;;;4.20;99.90;;;;;;5071670;28;20164;-72
2023/12/04 11:26:08;;;;;;;9.17;6.77;;;4.30;99.90;;;;;;5071719;28;20338;-74
2023/12/04 11:28:36;;;;;;;9.37;5.97;;;4.20;99.90;;;;;;5071925;28;20191;-72
2023/12/04 11:31:02;;;;;;;10.97;7.57;;;4.30;99.90;;;;;;5072323;28;20192;-73
2023/12/04 11:33:28;;;;;;;10.53;7.77;;;4.30;99.90;;;;;;5070208;28;20206;-73
2023/12/04 11:36:07;;;;;;;8.47;5.87;;;4.30;99.90;;;;;;5070720;28;20314;-72
2023/12/04 11:38:32;;;;;;;7.47;4.80;;;4.30;99.90;;;;;;5071987;28;20251;-72
2023/12/04 11:40:59;;;;;;;6.63;5.90;;;4.30;99.90;;;;;;5070891;28;20322;-73
2023/12/04 11:43:29;;;;;;;6.80;5.50;;;4.30;99.90;;;;;;5071224;28;20177;-72
2023/12/04 11:46:23;;;;;;;9.43;6.13;;;4.30;99.90;;;;;;5071750;28;20247;-72
2023/12/04 11:48:49;;;;;;;6.40;4.33;;;4.30;99.90;;;;;;5066013;28;20318;-72
2023/12/04 11:51:39;;;;;;;6.93;6.13;;;4.30;99.90;;;;;;5070715;28;20165;-73
2023/12/04 11:54:13;;;;;;;7.33;5.63;;;4.30;99.90;;;;;;5072113;28;20165;-73
2023/12/04 11:56:39;;;;;;;6.10;4.87;;;4.30;99.90;;;;;;5074390;28;20171;-72
2023/12/04 11:59:06;;;;;;;6.33;5.60;;;4.30;99.90;;;;;;5074785;28;20168;-72
2023/12/04 12:01:39;;;;;;;8.47;7.50;;;4.30;99.90;;;;;;5075446;28;20266;-71
2023/12/04 12:04:07;;;;;;;6.30;5.33;;;4.40;99.90;;;;;;5074545;28;20530;-71
2023/12/04 12:06:33;;;;;;;7.87;6.60;;;4.30;99.90;;;;;;5074404;28;20255;-72
2023/12/04 12:08:59;;;;;;;9.77;6.57;;;4.40;99.90;;;;;;5074589;28;20600;-72
2023/12/04 12:11:26;;;;;;;8.37;6.53;;;4.40;99.90;;;;;;5072871;28;20204;-72
2023/12/04 12:13:53;;;;;;;7.37;6.03;;;4.40;99.90;;;;;;5074387;28;20636;-72
2023/12/04 12:16:19;;;;;;;7.17;5.40;;;4.40;99.90;;;;;;5073511;28;20176;-71
2023/12/04 12:18:44;;;;;;;6.57;5.47;;;4.40;99.90;;;;;;5073264;28;20184;-72
2023/12/04 12:21:10;;;;;;;6.83;5.57;;;4.40;99.90;;;;;;5073422;28;20211;-72
2023/12/04 12:23:36;;;;;;;6.67;5.93;;;4.50;99.90;;;;;;5074636;28;20160;-73
2023/12/04 12:26:02;;;;;;;6.70;5.47;;;4.50;99.90;;;;;;5074313;28;20176;-74
2023/12/04 12:28:29;;;;;;;9.70;5.80;;;4.50;99.90;;;;;;5074983;28;20188;-73
2023/12/04 12:30:55;;;;;;;7.70;6.13;;;4.60;99.90;;;;;;5074814;28;20180;-74
2023/12/04 12:33:23;;;;;;;5.20;4.77;;;4.50;99.90;;;;;;5074006;28;20169;-73
2023/12/04 12:35:49;;;;;;;6.53;5.40;;;4.50;99.90;;;;;;5074087;28;20180;-72
2023/12/04 12:38:14;;;;;;;6.63;5.90;;;4.60;99.90;;;;;;5074078;28;20176;-73
2023/12/04 12:40:40;;;;;;;5.77;5.17;;;4.60;99.90;;;;;;5073948;28;20183;-73
2023/12/04 12:43:07;;;;;;;7.10;6.40;;;4.60;99.90;;;;;;5073977;28;20169;-74
2023/12/04 12:45:43;;;;;;;7.33;6.10;;;4.60;99.90;;;;;;5074720;28;20172;-73
2023/12/04 12:48:16;;;;;;;7.20;5.70;;;4.60;99.90;;;;;;5073024;28;20171;-73
2023/12/04 12:50:47;;;;;;;6.27;5.37;;;4.70;99.90;;;;;;5072109;28;20208;-74
2023/12/04 12:53:13;;;;;;;7.60;5.87;;;4.70;99.90;;;;;;5073766;28;20596;-74